Time;durP1;ratioP1;P1;durP2;ratioP2;P2;SDS_P1;SDS_P2;PMS_P1;PMS_P2;Temp;Humidity;BMP_temperature;BMP_pressure;BME280_temperature;BME280_humidity;BME280_pressure;Samples;Min_cycle;Max_cycle;Signal;HPM_P1;HPM_P2
2021/12/13 00:00:58;;;;;;;11.73;4.65;;;;;;;-142.75;100.00;78145.38;5091121;28;20020;-66
2021/12/13 00:03:46;;;;;;;11.73;4.47;;;;;;;-142.75;100.00;78129.63;5074432;28;20024;-66
2021/12/13 00:06:13;;;;;;;;;;;;;;;-142.75;100.00;78125.69;5093078;28;20034;-67
2021/12/13 00:08:43;;;;;;;12.93;4.25;;;;;;;-142.75;100.00;78137.50;5092483;28;21174;-67
2021/12/13 00:11:15;;;;;;;12.13;3.45;;;;;;;-142.75;100.00;78125.69;5091756;28;20054;-67
2021/12/13 00:14:10;;;;;;;10.88;3.53;;;;;;;-142.75;100.00;78133.56;5074202;28;20024;-67
2021/12/13 00:16:42;;;;;;;14.02;3.50;;;;;;;-142.75;100.00;78129.63;5092255;28;20024;-67
2021/12/13 00:19:12;;;;;;;12.50;3.03;;;;;;;-142.75;100.00;78125.69;5092341;28;20016;-67
2021/12/13 00:21:44;;;;;;;6.93;2.40;;;;;;;-142.75;100.00;78111.91;5091447;28;20027;-67
2021/12/13 00:24:22;;;;;;;10.05;2.50;;;;;;;-142.75;100.00;78115.84;5092143;28;20024;-67
2021/12/13 00:26:52;;;;;;;8.05;2.55;;;;;;;-142.75;100.00;78111.91;5092351;28;20020;-67
2021/12/13 00:29:25;;;;;;;8.57;2.20;;;;;;;-142.75;100.00;78119.78;5074209;28;20028;-68
2021/12/13 00:32:05;;;;;;;8.15;2.05;;;;;;;-142.75;100.00;78131.59;5091747;28;20123;-67
2021/12/13 00:34:38;;;;;;;9.65;2.13;;;;;;;-142.75;100.00;78133.56;5091954;28;20478;-66
2021/12/13 00:37:09;;;;;;;4.45;1.90;;;;;;;-142.75;100.00;78145.38;5092016;28;20102;-67
2021/12/13 00:39:45;;;;;;;9.27;2.30;;;;;;;-142.75;100.00;78149.31;5091871;28;20438;-68
2021/12/13 00:42:13;;;;;;;6.10;2.10;;;;;;;-142.75;100.00;78143.41;5091983;28;20024;-67
2021/12/13 00:44:49;;;;;;;7.10;2.33;;;;;;;-142.75;100.00;78147.34;5091418;28;20378;-67
2021/12/13 00:47:22;;;;;;;8.85;2.97;;;;;;;-142.75;100.00;78165.06;5074254;28;20401;-68
2021/12/13 00:49:54;;;;;;;5.75;2.40;;;;;;;-142.75;100.00;78172.94;5073180;28;20082;-67
2021/12/13 00:52:20;;;;;;;10.93;2.72;;;;;;;-142.75;100.00;78188.72;5091869;28;20051;-67
2021/12/13 00:54:46;;;;;;;;;;;;;;;-142.75;100.00;78196.59;5109877;28;20024;-68
2021/12/13 00:57:30;;;;;;;12.55;3.40;;;;;;;-142.75;100.00;78204.47;5111813;28;19920;-67
2021/12/13 01:00:03;;;;;;;6.28;2.60;;;;;;;-142.75;100.00;78220.22;5111112;28;20047;-66
2021/12/13 01:02:41;;;;;;;5.88;2.38;;;;;;;-142.75;100.00;78210.38;5111947;28;20050;-67
2021/12/13 01:05:24;;;;;;;9.38;2.90;;;;;;;-142.75;100.00;78220.22;5111713;28;20031;-67
2021/12/13 01:08:20;;;;;;;8.27;3.03;;;;;;;-142.75;100.00;78220.22;5093620;28;20032;-68
2021/12/13 01:10:55;;;;;;;6.85;2.88;;;;;;;-142.75;100.00;78220.22;5110763;28;20674;-68
2021/12/13 01:13:25;;;;;;;7.40;2.50;;;;;;;-142.75;100.00;78232.03;5093656;28;20038;-68
2021/12/13 01:15:59;;;;;;;8.90;2.83;;;;;;;-142.75;100.00;78235.97;5111683;28;20050;-67
2021/12/13 01:19:25;;;;;;;8.48;2.75;;;;;;;-142.75;100.00;78234.00;5093210;28;20096;-66
2021/12/13 01:21:57;;;;;;;7.15;3.50;;;;;;;-142.75;100.00;78234.00;5089578;28;20455;-67
2021/12/13 01:27:12;;;;;;;7.78;3.88;;;;;;;-142.75;100.00;78235.97;5091382;28;20093;-68
2021/12/13 01:29:37;;;;;;;12.13;4.25;;;;;;;-142.75;100.00;78232.03;5072370;28;20028;-65
2021/12/13 01:32:07;;;;;;;9.98;4.70;;;;;;;-142.75;100.00;78239.91;5072140;28;20036;-67
2021/12/13 01:34:37;;;;;;;9.98;4.50;;;;;;;-142.75;100.00;78247.78;5090752;28;20107;-67
2021/12/13 01:37:14;;;;;;;9.88;5.43;;;;;;;-142.75;100.00;78247.78;5090786;28;20032;-67
2021/12/13 01:39:50;;;;;;;12.95;6.13;;;;;;;-142.75;100.00;78253.69;5090194;28;20562;-66
2021/12/13 01:42:24;;;;;;;10.07;6.43;;;;;;;-142.75;100.00;78251.72;5090778;28;20031;-67
2021/12/13 01:44:54;;;;;;;14.02;6.75;;;;;;;-142.75;100.00;78257.63;5072659;28;20028;-67
2021/12/13 01:47:26;;;;;;;16.45;6.97;;;;;;;-142.75;100.00;78259.59;5072821;28;20024;-67
2021/12/13 01:50:01;;;;;;;15.55;7.25;;;;;;;-142.75;100.00;78245.81;5089869;28;20505;-65
2021/12/13 01:52:30;;;;;;;19.02;7.93;;;;;;;-142.75;100.00;78239.91;5072319;28;20032;-67
2021/12/13 01:55:00;;;;;;;14.25;8.40;;;;;;;-142.75;100.00;78251.72;5102960;28;20032;-66
2021/12/13 02:01:14;;;;;;;;;;;;;;;-142.75;100.00;78253.69;5081022;28;20109;-66
2021/12/13 02:03:13;;;;;;;17.80;8.27;;;;;;;-142.75;100.00;78255.66;5082713;28;19912;-67
2021/12/13 02:05:39;;;;;;;17.58;9.07;;;;;;;-142.75;100.00;78263.53;5098185;28;20080;-67
2021/12/13 02:08:13;;;;;;;18.20;8.70;;;;;;;-142.75;100.00;78263.53;5110478;28;20043;-67
2021/12/13 02:10:54;;;;;;;14.80;9.35;;;;;;;-142.75;100.00;78255.66;5109850;28;20027;-67
2021/12/13 02:13:23;;;;;;;14.35;8.73;;;;;;;-142.75;100.00;78253.69;5093240;28;20020;-67
2021/12/13 02:18:43;;;;;;;16.27;8.77;;;;;;;-142.75;100.00;78261.56;5090488;28;20050;-67
2021/12/13 02:21:24;;;;;;;13.55;9.20;;;;;;;-142.75;100.00;78261.56;5091474;28;20023;-67
2021/12/13 02:23:54;;;;;;;16.98;9.65;;;;;;;-142.75;100.00;78253.69;5107759;28;20031;-67
2021/12/13 02:26:20;;;;;;;18.63;10.93;;;;;;;-142.75;100.00;78247.78;5111318;28;20030;-67
2021/12/13 02:28:53;;;;;;;14.63;9.75;;;;;;;-142.75;100.00;78257.63;5103256;28;20016;-67
2021/12/13 02:31:23;;;;;;;17.77;9.77;;;;;;;-142.75;100.00;78257.63;5102341;28;20070;-66
2021/12/13 02:33:55;;;;;;;17.13;10.75;;;;;;;-142.75;100.00;78265.50;5110262;28;20054;-67
2021/12/13 02:36:25;;;;;;;19.85;11.25;;;;;;;-142.75;100.00;78259.59;5110548;28;20168;-67
2021/12/13 02:38:54;;;;;;;16.08;10.55;;;;;;;-142.75;100.00;78255.66;5105706;28;20031;-68
2021/12/13 02:41:23;;;;;;;14.38;9.75;;;;;;;-142.75;100.00;78255.66;5070927;28;20536;-67
2021/12/13 02:44:02;;;;;;;17.05;9.73;;;;;;;-142.75;100.00;78253.69;5084191;28;20614;-67
2021/12/13 02:46:27;;;;;;;14.23;10.07;;;;;;;-142.75;100.00;78273.38;5110039;28;20020;-66
2021/12/13 02:48:57;;;;;;;16.13;9.73;;;;;;;-142.75;100.00;78269.44;5109877;28;20035;-66
2021/12/13 02:51:29;;;;;;;19.60;10.20;;;;;;;-142.75;100.00;78275.34;5099449;28;20028;-66
2021/12/13 02:54:07;;;;;;;17.00;10.07;;;;;;;-142.75;100.00;78283.22;5089548;28;20122;-66
2021/12/13 02:56:38;;;;;;;18.20;9.65;;;;;;;-142.75;100.00;78279.28;5089764;28;20080;-67
2021/12/13 02:59:05;;;;;;;15.70;9.25;;;;;;;-142.75;100.00;78265.50;5089618;28;20110;-67
2021/12/13 03:01:38;;;;;;;14.40;9.05;;;;;;;-142.75;100.00;78269.44;5088600;28;20085;-67
2021/12/13 03:04:06;;;;;;;18.98;10.48;;;;;;;-142.75;100.00;78267.47;5089464;28;20031;-68
2021/12/13 03:06:37;;;;;;;14.45;9.40;;;;;;;-142.75;100.00;78263.53;5071075;28;20035;-68
2021/12/13 03:09:10;;;;;;;15.23;8.98;;;;;;;-142.75;100.00;78261.56;5089258;28;20452;-68
2021/12/13 03:11:35;;;;;;;13.43;8.63;;;;;;;-142.75;100.00;78265.50;5070428;28;20031;-68
2021/12/13 03:14:12;;;;;;;14.15;9.38;;;;;;;-142.75;100.00;78263.53;5089302;28;20024;-68
2021/12/13 03:16:44;;;;;;;15.40;8.95;;;;;;;-142.75;100.00;78247.78;5089009;28;20486;-68
2021/12/13 03:19:40;;;;;;;14.77;9.45;;;;;;;-142.75;100.00;78243.84;5089263;28;20024;-68
2021/12/13 03:22:36;;;;;;;12.93;8.38;;;;;;;-142.75;100.00;78247.78;5093166;28;20051;-68
2021/12/13 03:25:05;;;;;;;14.52;9.25;;;;;;;-142.75;100.00;78259.59;5109018;28;20370;-68
2021/12/13 03:27:55;;;;;;;17.23;8.48;;;;;;;-142.75;100.00;78255.66;5071040;28;20031;-68
2021/12/13 03:30:31;;;;;;;13.93;8.40;;;;;;;-142.75;100.00;78253.69;5088707;28;20417;-67
2021/12/13 03:33:05;;;;;;;15.50;7.47;;;;;;;-142.75;100.00;78259.59;5071035;28;20032;-67
2021/12/13 03:35:55;;;;;;;11.77;7.38;;;;;;;-142.75;100.00;78263.53;5092212;28;20473;-68
2021/12/13 03:38:30;;;;;;;13.70;8.40;;;;;;;-142.75;100.00;78277.31;5093514;28;20073;-68
2021/12/13 03:41:07;;;;;;;17.02;8.77;;;;;;;-142.75;100.00;78263.53;5092384;28;20093;-68
2021/12/13 03:43:45;;;;;;;12.27;8.10;;;;;;;-142.75;100.00;78259.59;5074990;28;20099;-68
2021/12/13 03:46:13;;;;;;;11.48;7.35;;;;;;;-142.75;100.00;78261.56;5092898;28;20073;-68
2021/12/13 03:48:40;;;;;;;11.23;6.95;;;;;;;-142.75;100.00;78267.47;5092889;28;20021;-68
2021/12/13 03:51:13;;;;;;;10.77;7.43;;;;;;;-142.75;100.00;78259.59;5092147;28;20055;-68
2021/12/13 03:53:38;;;;;;;12.43;6.78;;;;;;;-142.75;100.00;78263.53;5092821;28;20043;-68
2021/12/13 03:56:28;;;;;;;10.55;7.18;;;;;;;-142.75;100.00;78259.59;5092775;28;20028;-68
2021/12/13 03:58:58;;;;;;;10.13;7.22;;;;;;;-142.75;100.00;78247.78;5092842;28;20032;-67
2021/12/13 04:01:33;;;;;;;10.52;6.68;;;;;;;-142.75;100.00;78247.78;5092163;28;20028;-67
2021/12/13 04:04:01;;;;;;;9.93;6.95;;;;;;;-142.75;100.00;78247.78;5092506;28;20435;-68
2021/12/13 04:06:27;;;;;;;10.50;6.57;;;;;;;-142.75;100.00;78247.78;5092631;28;20081;-68
2021/12/13 04:08:55;;;;;;;13.55;6.38;;;;;;;-142.75;100.00;78239.91;5092354;28;20043;-66
2021/12/13 04:11:24;;;;;;;10.27;6.63;;;;;;;-142.75;100.00;78239.91;5092037;28;20032;-68
2021/12/13 04:14:08;;;;;;;10.93;6.15;;;;;;;-142.75;100.00;78247.78;5092747;28;20020;-68
2021/12/13 04:16:50;;;;;;;11.05;6.72;;;;;;;-142.75;100.00;78234.00;5092399;28;20493;-68
2021/12/13 04:19:23;;;;;;;10.63;6.18;;;;;;;-142.75;100.00;78239.91;5092318;28;20069;-68
2021/12/13 04:22:01;;;;;;;11.05;7.30;;;;;;;-142.75;100.00;78241.88;5091970;28;20044;-68
2021/12/13 04:24:36;;;;;;;12.93;6.60;;;;;;;-142.75;100.00;78243.84;5073946;28;20108;-68
2021/12/13 04:27:17;;;;;;;10.27;6.50;;;;;;;-142.75;100.00;78247.78;5092288;28;20500;-68
2021/12/13 04:29:44;;;;;;;9.95;6.57;;;;;;;-142.75;100.00;78243.84;5091280;28;20051;-67
2021/12/13 04:32:18;;;;;;;13.73;6.90;;;;;;;-142.75;100.00;78243.84;5092123;28;20028;-68
2021/12/13 04:34:44;;;;;;;12.00;6.75;;;;;;;-142.75;100.00;78241.88;5073852;28;20085;-68
2021/12/13 04:37:20;;;;;;;11.90;6.57;;;;;;;-142.75;100.00;78251.72;5092125;28;20106;-69
2021/12/13 04:39:52;;;;;;;11.38;6.35;;;;;;;-142.75;100.00;78247.78;5089835;28;20122;-68
2021/12/13 04:42:21;;;;;;;12.52;6.20;;;;;;;-142.75;100.00;78245.81;5092167;28;20052;-68
2021/12/13 04:45:01;;;;;;;9.15;5.82;;;;;;;-142.75;100.00;78255.66;5089433;22;20499;-68
2021/12/13 04:47:33;;;;;;;9.68;5.50;;;;;;;-142.75;100.00;78253.69;4988026;28;20066;-67
2021/12/13 04:50:07;;;;;;;9.05;5.40;;;;;;;-142.75;100.00;78251.72;4988281;28;20110;-67
2021/12/13 04:52:34;;;;;;;9.90;5.75;;;;;;;-142.75;100.00;78247.78;4989107;28;20025;-67
2021/12/13 04:55:00;;;;;;;9.85;6.18;;;;;;;-142.75;100.00;78245.81;4988858;28;20087;-67
2021/12/13 04:57:28;;;;;;;10.52;5.88;;;;;;;-142.75;100.00;78247.78;4989095;28;20018;-67
2021/12/13 04:59:58;;;;;;;10.15;6.07;;;;;;;-142.75;100.00;78247.78;4986948;28;20484;-67
2021/12/13 05:02:25;;;;;;;13.93;6.43;;;;;;;-142.75;100.00;78251.72;4989001;28;20056;-67
2021/12/13 05:04:57;;;;;;;11.07;6.25;;;;;;;-142.75;100.00;78255.66;4989152;28;20635;-67
2021/12/13 05:07:24;;;;;;;12.23;5.63;;;;;;;-142.75;100.00;78243.84;4987599;28;20042;-67
2021/12/13 05:09:52;;;;;;;10.88;6.38;;;;;;;-142.75;100.00;78255.66;4988319;28;20019;-67
2021/12/13 05:12:28;;;;;;;10.98;6.28;;;;;;;-142.75;100.00;78253.69;4989063;28;20480;-67
2021/12/13 05:14:58;;;;;;;16.13;6.10;;;;;;;-142.75;100.00;78255.66;4988809;28;20063;-67
2021/12/13 05:17:33;;;;;;;11.52;6.07;;;;;;;-142.75;100.00;78253.69;4987543;28;20026;-67
2021/12/13 05:20:20;;;;;;;15.52;6.60;;;;;;;-142.75;100.00;78257.63;4987942;28;20472;-67
2021/12/13 05:22:48;;;;;;;13.98;6.55;;;;;;;-142.75;100.00;78263.53;4988561;28;20036;-67
2021/12/13 05:25:22;;;;;;;9.75;5.82;;;;;;;-142.75;100.00;78261.56;4988520;28;20038;-67
2021/12/13 05:27:58;;;;;;;10.77;5.95;;;;;;;-142.75;100.00;78247.78;4988776;28;20056;-67
2021/12/13 05:30:24;;;;;;;11.68;6.50;;;;;;;-142.75;100.00;78241.88;4986579;28;20058;-67
2021/12/13 05:32:54;;;;;;;8.95;5.93;;;;;;;-142.75;100.00;78243.84;4986324;28;20121;-67
2021/12/13 05:35:35;;;;;;;12.88;6.00;;;;;;;-142.75;100.00;78239.91;4988765;28;20121;-67
2021/12/13 05:38:10;;;;;;;12.25;6.88;;;;;;;-142.75;100.00;78239.91;4988427;28;20046;-67
2021/12/13 05:40:42;;;;;;;10.63;6.40;;;;;;;-142.75;100.00;78249.75;5007109;28;20105;-68
2021/12/13 05:43:25;;;;;;;10.13;6.32;;;;;;;-142.75;100.00;78249.75;5007939;28;20109;-68
2021/12/13 05:45:58;;;;;;;10.45;6.13;;;;;;;-142.75;100.00;78251.72;5007872;28;20036;-67
2021/12/13 05:48:38;;;;;;;12.25;6.63;;;;;;;-142.75;100.00;78247.78;5007814;28;20501;-67
2021/12/13 05:51:07;;;;;;;11.02;6.25;;;;;;;-142.75;100.00;78235.97;5005841;28;20075;-67
2021/12/13 05:53:42;;;;;;;12.25;6.45;;;;;;;-142.75;100.00;78243.84;5007659;28;20075;-67
2021/12/13 05:56:21;;;;;;;14.13;7.40;;;;;;;-142.75;100.00;78247.78;5007207;28;20030;-67
2021/12/13 05:59:08;;;;;;;12.93;6.82;;;;;;;-142.75;100.00;78251.72;5007399;28;20045;-67
2021/12/13 06:02:01;;;;;;;12.98;6.28;;;;;;;-142.75;100.00;78253.69;5006840;28;20030;-67
2021/12/13 06:04:34;;;;;;;11.40;6.50;;;;;;;-142.75;100.00;78247.78;5011419;28;20081;-66
2021/12/13 06:07:01;;;;;;;9.80;6.45;;;;;;;-142.75;100.00;78243.84;5007607;28;20033;-67
2021/12/13 06:09:44;;;;;;;18.10;7.45;;;;;;;-142.75;100.00;78267.47;5007318;28;20387;-67
2021/12/13 06:12:23;;;;;;;14.60;7.35;;;;;;;-142.75;100.00;78265.50;5007504;28;20057;-67
2021/12/13 06:14:48;;;;;;;14.02;6.80;;;;;;;-142.75;100.00;78279.28;5006393;28;20030;-67
2021/12/13 06:17:21;;;;;;;13.65;6.70;;;;;;;-142.75;100.00;78263.53;5007489;28;20029;-67
2021/12/13 06:20:13;;;;;;;15.23;7.82;;;;;;;-142.75;100.00;78259.59;5006633;28;20018;-67
2021/12/13 06:22:38;;;;;;;13.75;7.88;;;;;;;-142.75;100.00;78259.59;5007217;28;20105;-67
2021/12/13 06:25:17;;;;;;;15.32;8.73;;;;;;;-142.75;100.00;78263.53;5005813;28;20108;-67
2021/12/13 06:27:49;;;;;;;15.13;8.02;;;;;;;-142.75;100.00;78259.59;5007187;28;20478;-67
2021/12/13 06:30:21;;;;;;;21.63;7.80;;;;;;;-142.75;100.00;78267.47;5006351;28;20044;-67
2021/12/13 06:33:00;;;;;;;18.63;9.50;;;;;;;-142.75;100.00;78267.47;5006644;28;20075;-67
2021/12/13 06:35:37;;;;;;;15.88;9.10;;;;;;;-142.75;100.00;78259.59;5005861;28;20057;-67
2021/12/13 06:38:43;;;;;;;20.42;9.75;;;;;;;-142.75;100.00;78263.53;5007051;28;20032;-67
2021/12/13 06:41:31;;;;;;;20.63;10.55;;;;;;;-142.75;100.00;78285.19;5015468;28;20506;-67
2021/12/13 06:44:01;;;;;;;16.38;9.85;;;;;;;-142.75;100.00;78275.34;5007081;28;20090;-67
2021/12/13 06:46:26;;;;;;;19.38;10.10;;;;;;;-142.75;100.00;78289.13;5006769;28;20030;-67
2021/12/13 06:48:59;;;;;;;18.57;10.73;;;;;;;-142.75;100.00;78283.22;4989293;28;20041;-67
2021/12/13 06:51:55;;;;;;;19.38;10.73;;;;;;;-142.75;100.00;78289.13;4986360;28;20032;-66
2021/12/13 06:54:29;;;;;;;17.73;11.23;;;;;;;-142.75;100.00;78291.09;4987543;28;20061;-67
2021/12/13 06:57:15;;;;;;;23.73;12.02;;;;;;;-142.75;100.00;78287.16;4987294;28;20022;-66
2021/12/13 06:59:59;;;;;;;22.35;12.93;;;;;;;-142.75;100.00;78281.25;4986531;28;20022;-67
2021/12/13 07:02:36;;;;;;;23.30;12.50;;;;;;;-142.75;100.00;78283.22;4987274;28;20022;-67
2021/12/13 07:05:10;;;;;;;20.30;12.52;;;;;;;-142.75;100.00;78283.22;4987092;28;20031;-67
2021/12/13 07:07:48;;;;;;;23.48;12.38;;;;;;;-142.75;100.00;78295.06;4986859;28;20029;-67
2021/12/13 07:10:19;;;;;;;23.27;12.40;;;;;;;-142.75;100.00;78293.06;4986245;28;20022;-67
2021/12/13 07:12:52;;;;;;;22.00;12.90;;;;;;;-142.75;100.00;78295.06;4987042;28;20251;-67
2021/12/13 07:15:41;;;;;;;22.33;13.25;;;;;;;-142.75;100.00;78293.06;4987265;28;20033;-67
2021/12/13 07:18:13;;;;;;;21.27;12.50;;;;;;;-142.75;100.00;78302.94;4987025;28;20037;-66
2021/12/13 07:20:45;;;;;;;23.33;13.18;;;;;;;-142.75;100.00;78295.06;4986044;28;20496;-67
2021/12/13 07:23:10;;;;;;;22.02;13.68;;;;;;;-142.75;100.00;78293.06;4986923;28;20440;-67
2021/12/13 07:25:39;;;;;;;22.85;13.65;;;;;;;-142.75;100.00;78295.06;4986940;28;20027;-67
2021/12/13 07:28:06;;;;;;;23.17;13.63;;;;;;;-142.75;100.00;78295.06;4986686;28;20030;-67
2021/12/13 07:30:33;;;;;;;23.13;13.70;;;;;;;-142.75;100.00;78299.00;4985879;28;20026;-67
2021/12/13 07:33:08;;;;;;;23.55;14.05;;;;;;;-142.75;100.00;78281.25;4986588;28;20062;-66
2021/12/13 07:35:40;;;;;;;22.73;13.32;;;;;;;-142.75;100.00;78300.97;4986254;28;20760;-67
2021/12/13 07:38:17;;;;;;;26.17;13.82;;;;;;;-142.75;100.00;78306.88;4986703;28;20033;-67
2021/12/13 07:40:58;;;;;;;25.35;13.15;;;;;;;-142.75;100.00;78304.91;4986084;28;20099;-66
2021/12/13 07:43:28;;;;;;;27.67;13.82;;;;;;;-142.75;100.00;78312.78;4986713;28;20251;-65
2021/12/13 07:46:01;;;;;;;29.13;15.02;;;;;;;-142.75;100.00;78316.72;4986574;28;20037;-66
2021/12/13 07:48:49;;;;;;;25.13;14.48;;;;;;;-142.75;100.00;78310.81;4986592;28;20031;-66
2021/12/13 07:51:15;;;;;;;26.73;15.02;;;;;;;-142.75;100.00;78300.97;4985924;28;20361;-67
2021/12/13 07:54:04;;;;;;;26.90;14.50;;;;;;;-142.75;100.00;78314.75;4986882;28;20042;-67
2021/12/13 07:56:33;;;;;;;24.10;14.60;;;;;;;-142.75;100.00;78318.69;4986357;28;20043;-67
2021/12/13 07:59:06;;;;;;;27.50;14.38;;;;;;;-142.75;100.00;78316.72;4986522;28;20037;-67
2021/12/13 08:01:35;;;;;;;25.33;14.98;;;;;;;-142.75;100.00;78332.47;4985947;28;20103;-68
2021/12/13 08:04:11;;;;;;;29.60;15.18;;;;;;;-142.75;100.00;78326.56;4986474;28;20039;-67
2021/12/13 08:06:43;;;;;;;27.63;15.57;;;;;;;-142.75;100.00;78330.50;4984087;28;20038;-67
2021/12/13 08:09:13;;;;;;;27.98;14.85;;;;;;;-142.75;100.00;78342.31;4985629;28;20034;-67
2021/12/13 08:11:47;;;;;;;30.83;14.88;;;;;;;-142.75;100.00;78334.44;4984680;28;20030;-67
2021/12/13 08:14:14;;;;;;;28.00;15.50;;;;;;;-142.75;100.00;78338.38;4985248;28;20113;-67
2021/12/13 08:16:44;;;;;;;32.72;15.00;;;;;;;-142.75;100.00;78346.25;4985450;28;20054;-67
2021/12/13 08:19:32;;;;;;;27.05;16.30;;;;;;;-142.75;100.00;78340.34;4985385;28;20087;-67
2021/12/13 08:22:01;;;;;;;49.28;32.15;;;;;;;-142.75;100.00;78336.41;4987758;28;20140;-67
2021/12/13 08:24:31;;;;;;;60.38;44.58;;;;;;;-142.75;100.00;78326.56;4987401;28;20428;-68
2021/12/13 08:27:02;;;;;;;55.38;38.30;;;;;;;-142.75;100.00;78330.50;4988518;28;20124;-67
2021/12/13 08:29:31;;;;;;;40.83;28.48;;;;;;;-142.75;100.00;78322.63;4988075;28;20038;-67
2021/12/13 08:32:03;;;;;;;39.17;25.40;;;;;;;-142.75;100.00;78336.41;4987960;28;20034;-67
2021/12/13 08:34:44;;;;;;;41.45;26.42;;;;;;;-142.75;100.00;78342.31;4988617;28;20038;-67
2021/12/13 08:37:20;;;;;;;35.05;24.20;;;;;;;-142.75;100.00;78334.44;4988449;28;20057;-67
2021/12/13 08:39:49;;;;;;;29.52;18.42;;;;;;;-142.75;100.00;78334.44;4985183;28;20064;-67
2021/12/13 08:42:18;;;;;;;28.48;16.73;;;;;;;-142.75;100.00;78334.44;4988344;28;20029;-67
2021/12/13 08:45:06;;;;;;;29.98;16.08;;;;;;;-142.75;100.00;78322.63;4988045;28;20037;-66
2021/12/13 08:47:37;;;;;;;23.25;14.40;;;;;;;-142.75;100.00;78346.25;4988300;28;20740;-67
2021/12/13 08:50:14;;;;;;;28.17;16.52;;;;;;;-142.75;100.00;78334.44;4987303;28;20079;-67
2021/12/13 08:52:45;;;;;;;26.77;15.38;;;;;;;-142.75;100.00;78332.47;4986771;28;20391;-67
2021/12/13 08:55:10;;;;;;;25.13;14.73;;;;;;;-142.75;100.00;78326.56;4988248;28;20105;-68
2021/12/13 08:57:50;;;;;;;26.90;15.33;;;;;;;-142.75;100.00;78332.47;4988122;28;20038;-67
2021/12/13 09:00:44;;;;;;;32.85;16.02;;;;;;;-142.75;100.00;78342.31;4987089;28;20022;-67
2021/12/13 09:03:10;;;;;;;28.58;14.85;;;;;;;-142.75;100.00;78334.44;4986391;28;20489;-67
2021/12/13 09:05:51;;;;;;;27.27;15.00;;;;;;;-142.75;100.00;78346.25;4987749;28;20079;-67
2021/12/13 09:08:18;;;;;;;31.00;16.85;;;;;;;-142.75;100.00;78338.38;4988210;28;20037;-67
2021/12/13 09:10:49;;;;;;;30.63;17.08;;;;;;;-142.75;100.00;78350.19;4987231;28;20105;-67
2021/12/13 09:13:19;;;;;;;26.00;15.75;;;;;;;-142.75;100.00;78332.47;4986150;28;20041;-67
2021/12/13 09:15:48;;;;;;;30.50;15.57;;;;;;;-142.75;100.00;78344.28;4987916;28;20034;-67
2021/12/13 09:18:20;;;;;;;24.63;15.13;;;;;;;-142.75;100.00;78352.16;4987741;28;20027;-67
2021/12/13 09:20:56;;;;;;;27.83;16.77;;;;;;;-142.75;100.00;78346.25;4986970;28;20030;-67
2021/12/13 09:23:26;;;;;;;25.77;15.07;;;;;;;-142.75;100.00;78350.19;4988029;28;20037;-67
2021/12/13 09:25:53;;;;;;;28.88;15.50;;;;;;;-142.75;100.00;78352.16;4987386;28;20149;-68
2021/12/13 09:28:26;;;;;;;26.33;14.70;;;;;;;-142.75;100.00;78362.00;4986622;28;20030;-67
2021/12/13 09:31:08;;;;;;;28.73;15.52;;;;;;;-142.75;100.00;78354.13;4986911;28;20476;-67
2021/12/13 09:33:38;;;;;;;26.27;14.75;;;;;;;-142.75;100.00;78369.88;4986301;28;20026;-67
2021/12/13 09:36:09;;;;;;;27.42;14.02;;;;;;;-142.75;100.00;78367.91;4987436;28;20022;-67
2021/12/13 09:38:53;;;;;;;23.92;14.52;;;;;;;-142.75;100.00;78365.94;4987527;28;20091;-67
2021/12/13 09:41:41;;;;;;;26.60;13.95;;;;;;;-142.75;100.00;78385.63;4985989;28;20027;-67
2021/12/13 09:44:09;;;;;;;26.85;14.52;;;;;;;-142.75;100.00;78375.78;4987370;28;20071;-67
2021/12/13 09:46:46;;;;;;;25.35;14.57;;;;;;;-142.75;100.00;78383.66;4985738;28;20562;-67
2021/12/13 09:49:15;;;;;;;29.95;16.05;;;;;;;-142.75;100.00;78383.66;4987313;28;20457;-67
2021/12/13 09:51:53;;;;;;;25.95;13.65;;;;;;;-142.75;100.00;78373.81;4986389;28;20369;-67
2021/12/13 09:54:23;;;;;;;24.90;14.20;;;;;;;-142.75;100.00;78377.75;4986179;28;20479;-67
2021/12/13 09:56:51;;;;;;;27.98;15.05;;;;;;;-142.75;100.00;78381.69;4987541;28;20506;-66
2021/12/13 09:59:21;;;;;;;26.20;15.50;;;;;;;-142.75;100.00;78367.91;4987535;28;20109;-67
2021/12/13 10:01:48;;;;;;;26.83;14.07;;;;;;;-142.75;100.00;78367.91;4985382;28;20049;-67
2021/12/13 10:04:23;;;;;;;26.02;13.75;;;;;;;-142.75;100.00;78379.72;4987205;28;20064;-68
2021/12/13 10:06:54;;;;;;;28.35;14.00;;;;;;;-142.75;100.00;78369.88;4987325;28;20403;-67
2021/12/13 10:09:32;;;;;;;24.20;14.30;;;;;;;-142.75;100.00;78365.94;4987371;28;20113;-67
2021/12/13 10:12:13;;;;;;;25.42;13.50;;;;;;;-142.75;100.00;78369.88;4984599;28;20085;-67
2021/12/13 10:14:45;;;;;;;27.15;13.35;;;;;;;-142.75;100.00;78375.78;4986878;28;20030;-68
2021/12/13 10:17:15;;;;;;;22.80;12.63;;;;;;;-142.75;100.00;78367.91;4985894;28;20030;-67
2021/12/13 10:19:48;;;;;;;26.13;13.40;;;;;;;-142.75;100.00;78365.94;4986134;28;20096;-67
2021/12/13 10:22:17;;;;;;;22.98;13.35;;;;;;;-142.75;100.00;78346.25;4987119;28;20068;-67
2021/12/13 10:24:53;;;;;;;28.58;14.45;;;;;;;-142.75;100.00;78348.22;4986628;28;20074;-68
2021/12/13 10:27:21;;;;;;;25.38;13.10;;;;;;;-142.75;100.00;78352.16;4987292;28;20139;-67
2021/12/13 10:29:53;;;;;;;24.92;13.10;;;;;;;-142.75;100.00;78365.94;4986122;28;20028;-67
2021/12/13 10:32:26;;;;;;;23.08;13.00;;;;;;;-142.75;100.00;78336.41;4987229;28;20022;-67
2021/12/13 10:35:00;;;;;;;23.83;12.80;;;;;;;-142.75;100.00;78330.50;4986532;28;20022;-67
2021/12/13 10:37:37;;;;;;;20.80;12.85;;;;;;;-142.75;100.00;78328.53;4986624;28;20103;-68
2021/12/13 10:40:37;;;;;;;28.83;13.02;;;;;;;-142.75;100.00;78322.63;4986049;28;20022;-67
2021/12/13 10:43:08;;;;;;;24.77;13.52;;;;;;;-142.75;100.00;78322.63;4996397;28;20042;-67
2021/12/13 10:45:40;;;;;;;26.60;12.73;;;;;;;-142.75;100.00;78318.69;4986436;28;20056;-67
2021/12/13 10:48:09;;;;;;;21.30;12.57;;;;;;;-142.75;100.00;78332.47;4985146;28;20026;-67
2021/12/13 10:50:59;;;;;;;24.10;13.13;;;;;;;-142.75;100.00;78346.25;4984372;28;20107;-67
2021/12/13 10:53:25;;;;;;;25.88;12.98;;;;;;;-142.75;100.00;78344.28;4986258;28;20095;-68
2021/12/13 10:55:54;;;;;;;20.58;12.95;;;;;;;-142.75;100.00;78346.25;4986794;28;20460;-67
2021/12/13 10:58:23;;;;;;;25.58;13.32;;;;;;;-142.75;100.00;78342.31;4985468;28;20018;-67
2021/12/13 11:00:56;;;;;;;27.00;13.20;;;;;;;-142.75;100.00;78338.38;4984162;28;20033;-67
2021/12/13 11:03:24;;;;;;;24.25;12.70;;;;;;;-142.75;100.00;78330.50;4986622;28;20133;-67
2021/12/13 11:05:51;;;;;;;23.85;12.88;;;;;;;-142.75;100.00;78324.59;4986462;28;20034;-67
2021/12/13 11:08:20;;;;;;;23.15;12.20;;;;;;;-142.75;100.00;78342.31;4986269;28;20026;-67
2021/12/13 11:10:56;;;;;;;24.23;12.10;;;;;;;-142.75;100.00;78334.44;4985613;28;20058;-67
2021/12/13 11:13:26;;;;;;;24.55;11.93;;;;;;;-142.75;100.00;78334.44;4985489;28;20472;-68
2021/12/13 11:15:56;;;;;;;23.15;12.82;;;;;;;-142.75;100.00;78322.63;4986126;28;20030;-69
2021/12/13 11:18:28;;;;;;;26.30;13.57;;;;;;;-142.75;100.00;78330.50;4985188;28;20384;-67
2021/12/13 11:20:57;;;;;;;21.40;11.95;;;;;;;-142.75;100.00;78352.16;4985032;28;20026;-67
2021/12/13 11:23:22;;;;;;;23.45;12.48;;;;;;;-142.75;100.00;78352.16;4984806;28;20026;-67
2021/12/13 11:25:57;;;;;;;25.40;12.35;;;;;;;-142.75;100.00;78332.47;4985866;28;20496;-67
2021/12/13 11:28:25;;;;;;;23.02;11.60;;;;;;;-142.75;100.00;78330.50;4985084;28;20392;-68
2021/12/13 11:30:52;;;;;;;20.42;11.02;;;;;;;-142.75;100.00;78322.63;4984288;28;20030;-67
2021/12/13 11:33:39;;;;;;;21.05;11.60;;;;;;;-142.75;100.00;78330.50;4983053;28;20101;-68
2021/12/13 11:36:07;;;;;;;21.08;11.82;;;;;;;-142.75;100.00;78316.72;4985197;28;20022;-67
2021/12/13 11:38:51;;;;;;;19.98;11.32;;;;;;;-142.75;100.00;78338.38;4985402;28;20054;-67